Time;durP1;ratioP1;P1;durP2;ratioP2;P2;SDS_P1;SDS_P2;PMS_P1;PMS_P2;Temp;Humidity;BMP_temperature;BMP_pressure;BME280_temperature;BME280_humidity;BME280_pressure;Samples;Min_cycle;Max_cycle;Signal;HPM_P1;HPM_P2
2022/12/20 00:00:09;;;;;;;;;;;;;;;;;;1046878;28;2531;-47
2022/12/20 00:00:48;;;;;;;;;;;;;;;;;;1049580;28;2654;-47
2022/12/20 00:01:21;;;;;;;;;;;;;;;;;;1050832;28;2143;-47
2022/12/20 00:01:52;;;;;;;;;;;;;;;;;;1052492;28;1329;-46
2022/12/20 00:02:22;;;;;;;;;;;;;;;;;;1050821;28;2566;-49
2022/12/20 00:02:52;;;;;;;;;;;;;;;;;;1054557;28;2658;-48
2022/12/20 00:03:22;;;;;;;;;;;;;;;;;;1054183;28;2226;-48
2022/12/20 00:03:54;;;;;;;;;;;;;;;;;;1052334;28;1626;-46
2022/12/20 00:04:24;;;;;;;;;;;;;;;;;;1051792;28;2422;-47
2022/12/20 00:04:54;;;;;;;;;;;;;;;;;;1049175;28;2327;-48
2022/12/20 00:05:24;;;;;;;;;;;;;;;;;;1049139;28;2470;-49
2022/12/20 00:05:55;;;;;;;;;;;;;;;;;;1047220;28;2677;-49
2022/12/20 00:06:25;;;;;;;;;;;;;;;;;;1046482;28;3131;-48
2022/12/20 00:06:55;;;;;;;;;;;;;;;;;;1053138;28;2537;-46
2022/12/20 00:07:25;;;;;;;;;;;;;;;;;;1050348;28;2629;-49
2022/12/20 00:07:56;;;;;;;;;;;;;;;;;;1053009;28;2546;-47
2022/12/20 00:08:26;;;;;;;;;;;;;;;;;;1053024;28;2365;-49
2022/12/20 00:08:57;;;;;;;;;;;;;;;;;;1050985;28;1861;-47
2022/12/20 00:09:28;;;;;;;;;;;;;;;;;;1049644;28;2626;-48
2022/12/20 00:09:58;;;;;;;;;;;;;;;;;;1050157;28;1743;-49
2022/12/20 00:10:28;;;;;;;;;;;;;;;;;;1048106;28;2219;-48
2022/12/20 00:10:59;;;;;;;;;;;;;;;;;;1052700;28;2621;-48
2022/12/20 00:11:31;;;;;;;;;;;;;;;;;;1053388;28;2474;-46
2022/12/20 00:12:01;;;;;;;;;;;;;;;;;;1054225;28;2567;-47
2022/12/20 00:12:31;;;;;;;;;;;;;;;;;;1052618;28;2173;-53
2022/12/20 00:13:02;;;;;;;;;;;;;;;;;;1053242;28;2559;-48
2022/12/20 00:13:32;;;;;;;;;;;;;;;;;;1053364;28;2737;-48
2022/12/20 00:14:03;;;;;;;;;;;;;;;;;;1051657;28;1805;-47
2022/12/20 00:14:33;;;;;;;;;;;;;;;;;;1047320;28;2667;-48
2022/12/20 00:15:03;;;;;;;;;;;;;;;;;;1047563;28;2561;-50
2022/12/20 00:15:34;;;;;;;;;;;;;;;;;;1049294;28;2524;-48
2022/12/20 00:16:11;;;;;;;;;;;;;;;;;;1049298;28;1578;-49
2022/12/20 00:16:42;;;;;;;;;;;;;;;;;;1053592;28;2709;-47
2022/12/20 00:17:12;;;;;;;;;;;;;;;;;;1052448;28;3121;-47
2022/12/20 00:17:42;;;;;;;;;;;;;;;;;;1051370;28;2403;-50
2022/12/20 00:18:12;;;;;;;;;;;;;;;;;;1050458;28;2796;-49
2022/12/20 00:18:43;;;;;;;;;;;;;;;;;;1051767;28;2525;-50
2022/12/20 00:19:14;;;;;;;;;;;;;;;;;;1053825;28;2591;-46
2022/12/20 00:19:44;;;;;;;;;;;;;;;;;;1053917;28;2541;-47
2022/12/20 00:20:14;;;;;;;;;;;;;;;;;;1050904;28;2215;-52
2022/12/20 00:20:44;;;;;;;;;;;;;;;;;;1051117;28;2380;-47
2022/12/20 00:21:15;;;;;;;;;;;;;;;;;;1051799;28;2503;-49
2022/12/20 00:21:45;;;;;;;;;;;;;;;;;;1052117;28;2362;-48
2022/12/20 00:22:15;;;;;;;;;;;;;;;;;;1052242;28;2262;-47
2022/12/20 00:22:45;;;;;;;;;;;;;;;;;;1054397;28;2440;-48
2022/12/20 00:23:16;;;;;;;;;;;;;;;;;;1053591;28;2735;-48
2022/12/20 00:23:46;;;;;;;;;;;;;;;;;;1053780;28;1753;-47
2022/12/20 00:24:16;;;;;;;;;;;;;;;;;;1053216;28;2558;-52
2022/12/20 00:24:46;;;;;;;;;;;;;;;;;;1051334;28;2379;-47
2022/12/20 00:25:19;;;;;;;;;;;;;;;;;;1051268;28;2571;-47
2022/12/20 00:25:49;;;;;;;;;;;;;;;;;;1054508;28;2323;-48
2022/12/20 00:26:20;;;;;;;;;;;;;;;;;;1051366;28;2434;-47
2022/12/20 00:26:51;;;;;;;;;;;;;;;;;;1048956;28;2563;-48
2022/12/20 00:27:21;;;;;;;;;;;;;;;;;;1048830;28;2555;-50
2022/12/20 00:27:51;;;;;;;;;;;;;;;;;;1046581;28;2876;-49
2022/12/20 00:28:21;;;;;;;;;;;;;;;;;;1048657;28;2617;-47
2022/12/20 00:28:52;;;;;;;;;;;;;;;;;;1053271;28;2636;-47
2022/12/20 00:29:22;;;;;;;;;;;;;;;;;;1052294;28;2546;-46
2022/12/20 00:29:52;;;;;;;;;;;;;;;;;;1054034;28;2531;-54
2022/12/20 00:30:22;;;;;;;;;;;;;;;;;;1047967;28;2579;-51
2022/12/20 00:30:53;;;;;;;;;;;;;;;;;;1048195;28;2032;-47
2022/12/20 00:31:24;;;;;;;;;;;;;;;;;;1049524;28;2143;-46
2022/12/20 00:31:54;;;;;;;;;;;;;;;;;;1048032;28;2715;-49
2022/12/20 00:32:25;;;;;;;;;;;;;;;;;;1051891;28;2506;-46
2022/12/20 00:32:56;;;;;;;;;;;;;;;;;;1052188;28;3064;-48
2022/12/20 00:33:26;;;;;;;;;;;;;;;;;;1051755;28;2234;-48
2022/12/20 00:33:57;;;;;;;;;;;;;;;;;;1053447;28;2679;-48
2022/12/20 00:34:27;;;;;;;;;;;;;;;;;;1052075;28;3047;-46
2022/12/20 00:34:58;;;;;;;;;;;;;;;;;;1054060;28;2247;-46
2022/12/20 00:35:28;;;;;;;;;;;;;;;;;;1053661;28;2567;-47
2022/12/20 00:35:58;;;;;;;;;;;;;;;;;;1052285;28;1767;-46
2022/12/20 00:36:30;;;;;;;;;;;;;;;;;;1055924;28;1580;-48
2022/12/20 00:37:00;;;;;;;;;;;;;;;;;;1052835;28;2766;-47
2022/12/20 00:37:30;;;;;;;;;;;;;;;;;;1054567;28;2470;-47
2022/12/20 00:38:01;;;;;;;;;;;;;;;;;;1052462;28;2212;-47
2022/12/20 00:38:31;;;;;;;;;;;;;;;;;;1053403;28;2597;-47
2022/12/20 00:39:02;;;;;;;;;;;;;;;;;;1051961;28;2423;-46
2022/12/20 00:39:38;;;;;;;;;;;;;;;;;;1054496;28;2318;-50
2022/12/20 00:40:08;;;;;;;;;;;;;;;;;;1054140;28;2500;-48
2022/12/20 00:40:39;;;;;;;;;;;;;;;;;;1051632;28;2251;-47
2022/12/20 00:41:24;;;;;;;;;;;;;;;;;;1051061;28;2602;-47
2022/12/20 00:41:54;;;;;;;;;;;;;;;;;;1051607;28;2457;-48
2022/12/20 00:42:24;;;;;;;;;;;;;;;;;;1054771;28;2521;-50
2022/12/20 00:42:55;;;;;;;;;;;;;;;;;;1053350;28;2133;-48
2022/12/20 00:43:25;;;;;;;;;;;;;;;;;;1051201;28;2203;-47
2022/12/20 00:43:56;;;;;;;;;;;;;;;;;;1052060;28;2607;-48
2022/12/20 00:44:27;;;;;;;;;;;;;;;;;;1052508;28;3036;-46
2022/12/20 00:44:57;;;;;;;;;;;;;;;;;;1054711;28;2061;-50
2022/12/20 00:45:27;;;;;;;;;;;;;;;;;;1052402;28;2676;-46
2022/12/20 00:45:58;;;;;;;;;;;;;;;;;;1052458;28;2455;-46
2022/12/20 00:46:30;;;;;;;;;;;;;;;;;;1051927;28;2511;-48
2022/12/20 00:47:00;;;;;;;;;;;;;;;;;;1053275;28;2225;-47
2022/12/20 00:47:31;;;;;;;;;;;;;;;;;;1051841;28;2548;-47
2022/12/20 00:48:01;;;;;;;;;;;;;;;;;;1051849;28;2201;-46
2022/12/20 00:48:31;;;;;;;;;;;;;;;;;;1052604;28;2284;-48
2022/12/20 00:49:02;;;;;;;;;;;;;;;;;;1053231;28;2394;-49
2022/12/20 00:49:32;;;;;;;;;;;;;;;;;;1052727;28;2602;-48
2022/12/20 00:50:02;;;;;;;;;;;;;;;;;;1051789;28;2255;-49
2022/12/20 00:50:33;;;;;;;;;;;;;;;;;;1052685;28;2539;-47
2022/12/20 00:51:04;;;;;;;;;;;;;;;;;;1051782;28;2150;-48
2022/12/20 00:51:34;;;;;;;;;;;;;;;;;;1051830;28;2169;-47
2022/12/20 00:52:04;;;;;;;;;;;;;;;;;;1051813;28;2137;-48
2022/12/20 00:52:34;;;;;;;;;;;;;;;;;;1052030;28;3076;-47
2022/12/20 00:53:08;;;;;;;;;;;;;;;;;;1051939;28;1737;-51
2022/12/20 00:53:38;;;;;;;;;;;;;;;;;;1052598;28;2327;-47
2022/12/20 00:54:09;;;;;;;;;;;;;;;;;;1054684;28;1723;-49
2022/12/20 00:54:39;;;;;;;;;;;;;;;;;;1052350;28;2554;-48
2022/12/20 00:55:09;;;;;;;;;;;;;;;;;;1051569;28;2435;-46
2022/12/20 00:55:40;;;;;;;;;;;;;;;;;;1051286;28;2481;-47
2022/12/20 00:56:11;;;;;;;;;;;;;;;;;;1053056;28;2546;-47
2022/12/20 00:56:41;;;;;;;;;;;;;;;;;;1053254;28;2165;-49
2022/12/20 00:57:11;;;;;;;;;;;;;;;;;;1052337;28;2271;-48
2022/12/20 00:57:41;;;;;;;;;;;;;;;;;;1052794;28;2436;-47
2022/12/20 00:58:12;;;;;;;;;;;;;;;;;;1053435;28;2547;-47
2022/12/20 00:58:42;;;;;;;;;;;;;;;;;;1052243;28;2498;-47
2022/12/20 00:59:12;;;;;;;;;;;;;;;;;;1055419;28;1284;-46
2022/12/20 00:59:42;;;;;;;;;;;;;;;;;;1049283;28;2297;-48
2022/12/20 01:00:14;;;;;;;;;;;;;;;;;;1048744;28;2156;-48
2022/12/20 01:00:44;;;;;;;;;;;;;;;;;;1049432;28;2578;-48
2022/12/20 01:01:21;;;;;;;;;;;;;;;;;;1048318;28;2941;-47
2022/12/20 01:01:51;;;;;;;;;;;;;;;;;;1052643;28;2438;-49
2022/12/20 01:02:21;;;;;;;;;;;;;;;;;;1051482;28;2359;-46
2022/12/20 01:02:51;;;;;;;;;;;;;;;;;;1053309;28;2753;-47
2022/12/20 01:03:22;;;;;;;;;;;;;;;;;;1054479;28;2169;-46
2022/12/20 01:03:52;;;;;;;;;;;;;;;;;;1052886;28;2164;-50
2022/12/20 01:04:23;;;;;;;;;;;;;;;;;;1054153;28;2086;-48
2022/12/20 01:04:53;;;;;;;;;;;;;;;;;;1053907;28;2542;-47
2022/12/20 01:05:23;;;;;;;;;;;;;;;;;;1054602;28;2220;-48
2022/12/20 01:05:55;;;;;;;;;;;;;;;;;;1052877;28;2121;-49
2022/12/20 01:06:25;;;;;;;;;;;;;;;;;;1054350;28;2413;-49
2022/12/20 01:06:56;;;;;;;;;;;;;;;;;;1052134;28;2777;-47
2022/12/20 01:07:26;;;;;;;;;;;;;;;;;;1052211;28;3156;-47
2022/12/20 01:07:56;;;;;;;;;;;;;;;;;;1053879;28;3023;-47
2022/12/20 01:08:28;;;;;;;;;;;;;;;;;;1053757;28;2594;-50
2022/12/20 01:08:58;;;;;;;;;;;;;;;;;;1051201;28;2253;-48
2022/12/20 01:09:28;;;;;;;;;;;;;;;;;;1047640;28;2440;-48
2022/12/20 01:09:59;;;;;;;;;;;;;;;;;;1048095;28;1977;-47
2022/12/20 01:10:29;;;;;;;;;;;;;;;;;;1045239;28;2398;-47
2022/12/20 01:11:08;;;;;;;;;;;;;;;;;;1045832;28;2220;-48
2022/12/20 01:11:38;;;;;;;;;;;;;;;;;;1049705;28;2714;-47
2022/12/20 01:12:08;;;;;;;;;;;;;;;;;;1051148;28;1987;-46
2022/12/20 01:12:39;;;;;;;;;;;;;;;;;;1052196;28;2573;-49
2022/12/20 01:13:09;;;;;;;;;;;;;;;;;;1054335;28;2513;-48
2022/12/20 01:13:40;;;;;;;;;;;;;;;;;;1054221;28;1434;-50
2022/12/20 01:14:12;;;;;;;;;;;;;;;;;;1050831;28;1862;-48
2022/12/20 01:14:42;;;;;;;;;;;;;;;;;;1046959;28;2365;-51
2022/12/20 01:15:12;;;;;;;;;;;;;;;;;;1048878;28;2865;-50
2022/12/20 01:15:43;;;;;;;;;;;;;;;;;;1051613;28;1687;-47
2022/12/20 01:16:15;;;;;;;;;;;;;;;;;;1049640;28;2024;-48
2022/12/20 01:16:46;;;;;;;;;;;;;;;;;;1052483;28;2459;-48
2022/12/20 01:17:16;;;;;;;;;;;;;;;;;;1051001;28;2109;-47
2022/12/20 01:17:47;;;;;;;;;;;;;;;;;;1051836;28;1771;-47
2022/12/20 01:18:17;;;;;;;;;;;;;;;;;;1051881;28;2096;-49
2022/12/20 01:18:48;;;;;;;;;;;;;;;;;;1051839;28;2429;-47
2022/12/20 01:19:18;;;;;;;;;;;;;;;;;;1052779;28;2392;-49
2022/12/20 01:19:48;;;;;;;;;;;;;;;;;;1053825;28;2432;-47
2022/12/20 01:20:19;;;;;;;;;;;;;;;;;;1053365;28;2609;-47
2022/12/20 01:20:58;;;;;;;;;;;;;;;;;;1051533;28;2406;-48
2022/12/20 01:21:29;;;;;;;;;;;;;;;;;;1050470;28;2512;-47
2022/12/20 01:21:59;;;;;;;;;;;;;;;;;;1052598;28;2741;-48
2022/12/20 01:22:29;;;;;;;;;;;;;;;;;;1050288;28;2253;-48
2022/12/20 01:23:00;;;;;;;;;;;;;;;;;;1053401;28;2609;-49
2022/12/20 01:23:30;;;;;;;;;;;;;;;;;;1050698;28;2594;-49
2022/12/20 01:24:00;;;;;;;;;;;;;;;;;;1053600;28;2471;-49
2022/12/20 01:24:30;;;;;;;;;;;;;;;;;;1054232;28;2516;-47
2022/12/20 01:25:01;;;;;;;;;;;;;;;;;;1051223;28;2521;-47
2022/12/20 01:25:31;;;;;;;;;;;;;;;;;;1052819;28;2565;-47
2022/12/20 01:26:03;;;;;;;;;;;;;;;;;;1051875;28;2567;-47
2022/12/20 01:26:33;;;;;;;;;;;;;;;;;;1051380;28;1703;-47
2022/12/20 01:27:04;;;;;;;;;;;;;;;;;;1051609;28;2394;-47
2022/12/20 01:27:34;;;;;;;;;;;;;;;;;;1052317;28;2530;-47
2022/12/20 01:28:04;;;;;;;;;;;;;;;;;;1052827;28;2455;-47
2022/12/20 01:28:35;;;;;;;;;;;;;;;;;;1053498;28;3053;-49
2022/12/20 01:29:05;;;;;;;;;;;;;;;;;;1046454;28;1845;-48
2022/12/20 01:29:35;;;;;;;;;;;;;;;;;;1046485;28;3107;-48
2022/12/20 01:30:06;;;;;;;;;;;;;;;;;;1048365;28;3432;-47
2022/12/20 01:30:38;;;;;;;;;;;;;;;;;;1045799;28;2729;-47
2022/12/20 01:31:10;;;;;;;;;;;;;;;;;;1043309;28;2114;-48
2022/12/20 01:31:41;;;;;;;;;;;;;;;;;;1048929;28;2422;-47
2022/12/20 01:32:11;;;;;;;;;;;;;;;;;;1049430;28;2188;-47
2022/12/20 01:32:41;;;;;;;;;;;;;;;;;;1050902;28;2520;-48
2022/12/20 01:33:11;;;;;;;;;;;;;;;;;;1053301;28;2652;-48
2022/12/20 01:33:42;;;;;;;;;;;;;;;;;;1049549;28;2639;-48
2022/12/20 01:34:13;;;;;;;;;;;;;;;;;;1050980;28;2179;-46
2022/12/20 01:34:43;;;;;;;;;;;;;;;;;;1048192;28;2794;-47
2022/12/20 01:35:14;;;;;;;;;;;;;;;;;;1048085;28;2282;-47
2022/12/20 01:35:55;;;;;;;;;;;;;;;;;;1053184;28;1979;-50
2022/12/20 01:36:26;;;;;;;;;;;;;;;;;;1053477;28;2931;-47
2022/12/20 01:36:57;;;;;;;;;;;;;;;;;;1053692;28;2609;-46
2022/12/20 01:37:27;;;;;;;;;;;;;;;;;;1054944;28;2444;-46
2022/12/20 01:37:57;;;;;;;;;;;;;;;;;;1054639;28;2354;-47
2022/12/20 01:38:28;;;;;;;;;;;;;;;;;;1054457;28;2227;-46
2022/12/20 01:39:07;;;;;;;;;;;;;;;;;;1052005;28;2467;-48
2022/12/20 01:39:44;;;;;;;;;;;;;;;;;;1052459;28;2490;-46
2022/12/20 01:40:14;;;;;;;;;;;;;;;;;;1051251;28;2202;-49
2022/12/20 01:40:44;;;;;;;;;;;;;;;;;;1054130;28;1443;-46
2022/12/20 01:41:28;;;;;;;;;;;;;;;;;;1046178;28;2472;-47
2022/12/20 01:42:05;;;;;;;;;;;;;;;;;;1046461;28;2451;-49
2022/12/20 01:42:36;;;;;;;;;;;;;;;;;;1044540;28;2629;-50
2022/12/20 01:43:09;;;;;;;;;;;;;;;;;;1045228;28;2476;-47
2022/12/20 01:43:48;;;;;;;;;;;;;;;;;;1046154;28;2068;-48
2022/12/20 01:44:18;;;;;;;;;;;;;;;;;;1047204;28;2017;-47
2022/12/20 01:44:54;;;;;;;;;;;;;;;;;;1043775;28;2408;-46
2022/12/20 01:45:26;;;;;;;;;;;;;;;;;;1044554;28;2585;-50
2022/12/20 01:45:57;;;;;;;;;;;;;;;;;;1047486;28;2295;-46
2022/12/20 01:46:28;;;;;;;;;;;;;;;;;;1044496;28;2651;-46
2022/12/20 01:46:59;;;;;;;;;;;;;;;;;;1045741;28;2344;-46
2022/12/20 01:47:31;;;;;;;;;;;;;;;;;;1044618;28;2275;-47
2022/12/20 01:48:01;;;;;;;;;;;;;;;;;;1044538;28;2319;-51
2022/12/20 01:48:31;;;;;;;;;;;;;;;;;;1043291;28;2537;-48
2022/12/20 01:49:06;;;;;;;;;;;;;;;;;;1046040;28;2943;-48
2022/12/20 01:49:41;;;;;;;;;;;;;;;;;;1042788;28;2979;-48
2022/12/20 01:50:11;;;;;;;;;;;;;;;;;;1043858;28;2685;-47
2022/12/20 01:50:41;;;;;;;;;;;;;;;;;;1045143;28;2912;-50
2022/12/20 01:51:12;;;;;;;;;;;;;;;;;;1045010;28;2194;-46
2022/12/20 01:51:43;;;;;;;;;;;;;;;;;;1044401;28;2746;-49
2022/12/20 01:52:16;;;;;;;;;;;;;;;;;;1045313;28;2300;-47
2022/12/20 01:52:46;;;;;;;;;;;;;;;;;;1046613;28;2449;-49
2022/12/20 01:53:18;;;;;;;;;;;;;;;;;;1045105;28;2465;-52
2022/12/20 01:53:51;;;;;;;;;;;;;;;;;;1044897;28;2933;-49
2022/12/20 01:54:23;;;;;;;;;;;;;;;;;;1039478;28;2613;-48
2022/12/20 01:54:57;;;;;;;;;;;;;;;;;;1045568;28;2278;-49
2022/12/20 01:55:27;;;;;;;;;;;;;;;;;;1045519;28;2059;-50
2022/12/20 01:56:01;;;;;;;;;;;;;;;;;;1044806;28;2352;-49
2022/12/20 01:56:32;;;;;;;;;;;;;;;;;;1043810;28;2696;-47
2022/12/20 01:57:13;;;;;;;;;;;;;;;;;;1045016;28;2429;-47
2022/12/20 01:57:48;;;;;;;;;;;;;;;;;;1045361;28;2628;-47
2022/12/20 01:58:18;;;;;;;;;;;;;;;;;;1043776;28;2068;-53
2022/12/20 01:58:50;;;;;;;;;;;;;;;;;;1045593;28;2515;-47
2022/12/20 01:59:20;;;;;;;;;;;;;;;;;;1044265;28;1812;-49
2022/12/20 01:59:51;;;;;;;;;;;;;;;;;;1044777;28;2482;-48
2022/12/20 02:00:21;;;;;;;;;;;;;;;;;;1043438;28;2115;-49
2022/12/20 02:00:51;;;;;;;;;;;;;;;;;;1045728;28;2398;-53
2022/12/20 02:01:23;;;;;;;;;;;;;;;;;;1044012;28;3035;-46
2022/12/20 02:01:56;;;;;;;;;;;;;;;;;;1043619;28;3063;-49
2022/12/20 02:02:26;;;;;;;;;;;;;;;;;;1044437;28;2380;-47
2022/12/20 02:03:02;;;;;;;;;;;;;;;;;;1044552;28;2422;-48
2022/12/20 02:03:32;;;;;;;;;;;;;;;;;;1045012;28;2936;-51
2022/12/20 02:04:03;;;;;;;;;;;;;;;;;;1041952;28;2496;-49
2022/12/20 02:04:33;;;;;;;;;;;;;;;;;;1045946;28;2487;-46
2022/12/20 02:05:03;;;;;;;;;;;;;;;;;;1043564;28;2441;-47
2022/12/20 02:05:35;;;;;;;;;;;;;;;;;;1045086;28;2916;-47
2022/12/20 02:06:16;;;;;;;;;;;;;;;;;;1041208;28;2150;-47
2022/12/20 02:06:46;;;;;;;;;;;;;;;;;;1040718;28;2200;-48
2022/12/20 02:07:19;;;;;;;;;;;;;;;;;;1042428;28;2546;-47
2022/12/20 02:07:51;;;;;;;;;;;;;;;;;;1046628;28;3192;-48
2022/12/20 02:08:21;;;;;;;;;;;;;;;;;;1049577;28;2765;-48
2022/12/20 02:08:52;;;;;;;;;;;;;;;;;;1050809;28;1831;-47
2022/12/20 02:09:22;;;;;;;;;;;;;;;;;;1047610;28;2172;-46
2022/12/20 02:09:54;;;;;;;;;;;;;;;;;;1044139;28;2517;-47
2022/12/20 02:10:28;;;;;;;;;;;;;;;;;;1044884;28;2928;-47
2022/12/20 02:11:05;;;;;;;;;;;;;;;;;;1045251;28;2651;-49
2022/12/20 02:11:49;;;;;;;;;;;;;;;;;;1048175;28;2037;-46
2022/12/20 02:12:21;;;;;;;;;;;;;;;;;;1043917;28;2961;-47
2022/12/20 02:12:56;;;;;;;;;;;;;;;;;;1046010;28;2225;-49
2022/12/20 02:13:35;;;;;;;;;;;;;;;;;;1044106;28;3048;-47
2022/12/20 02:14:05;;;;;;;;;;;;;;;;;;1043364;28;2469;-49
2022/12/20 02:14:54;;;;;;;;;;;;;;;;;;1045110;28;2700;-48
2022/12/20 02:15:35;;;;;;;;;;;;;;;;;;1042887;28;2404;-47
2022/12/20 02:16:05;;;;;;;;;;;;;;;;;;1047084;28;2192;-48
2022/12/20 02:16:58;;;;;;;;;;;;;;;;;;1042285;28;2375;-47
2022/12/20 02:17:34;;;;;;;;;;;;;;;;;;1030324;28;2263;-51
2022/12/20 02:18:04;;;;;;;;;;;;;;;;;;1029633;28;2924;-47
2022/12/20 02:18:41;;;;;;;;;;;;;;;;;;1042373;28;3801;-47
2022/12/20 02:19:36;;;;;;;;;;;;;;;;;;1051132;28;2380;-47
2022/12/20 02:20:25;;;;;;;;;;;;;;;;;;1048946;28;2868;-47
2022/12/20 02:21:11;;;;;;;;;;;;;;;;;;1045125;28;2562;-49
2022/12/20 02:21:43;;;;;;;;;;;;;;;;;;1044868;28;2616;-51
2022/12/20 02:22:32;;;;;;;;;;;;;;;;;;1045191;28;1869;-47
2022/12/20 02:23:30;;;;;;;;;;;;;;;;;;1043410;28;2601;-48
2022/12/20 02:24:09;;;;;;;;;;;;;;;;;;1043917;28;2087;-48
2022/12/20 02:24:58;;;;;;;;;;;;;;;;;;1044113;28;2992;-50
2022/12/20 02:25:37;;;;;;;;;;;;;;;;;;1046130;28;2417;-49
2022/12/20 02:26:22;;;;;;;;;;;;;;;;;;1044987;28;2495;-48
2022/12/20 02:27:07;;;;;;;;;;;;;;;;;;1043343;28;2486;-47
2022/12/20 02:27:48;;;;;;;;;;;;;;;;;;1045806;28;2129;-46
2022/12/20 02:28:19;;;;;;;;;;;;;;;;;;1046637;28;2108;-46
2022/12/20 02:29:08;;;;;;;;;;;;;;;;;;1046224;28;2083;-47
2022/12/20 02:29:57;;;;;;;;;;;;;;;;;;1043862;28;2227;-48
2022/12/20 02:30:30;;;;;;;;;;;;;;;;;;1045938;28;2679;-48
2022/12/20 02:31:02;;;;;;;;;;;;;;;;;;1046845;28;1808;-47
2022/12/20 02:31:37;;;;;;;;;;;;;;;;;;1045444;28;2115;-47
2022/12/20 02:32:16;;;;;;;;;;;;;;;;;;1043789;28;2586;-50
2022/12/20 02:32:49;;;;;;;;;;;;;;;;;;1046724;28;2607;-47
2022/12/20 02:33:20;;;;;;;;;;;;;;;;;;1044222;28;2482;-49
2022/12/20 02:33:51;;;;;;;;;;;;;;;;;;1043057;28;2558;-48
2022/12/20 02:34:23;;;;;;;;;;;;;;;;;;1044879;28;3822;-48
2022/12/20 02:34:54;;;;;;;;;;;;;;;;;;1043911;28;2444;-47
2022/12/20 02:35:26;;;;;;;;;;;;;;;;;;1039333;28;2674;-47
2022/12/20 02:35:56;;;;;;;;;;;;;;;;;;1040078;28;2898;-49
2022/12/20 02:36:26;;;;;;;;;;;;;;;;;;1038291;28;2070;-46
2022/12/20 02:36:56;;;;;;;;;;;;;;;;;;1041028;28;2560;-48
2022/12/20 02:37:33;;;;;;;;;;;;;;;;;;1044571;28;2960;-47
2022/12/20 02:38:22;;;;;;;;;;;;;;;;;;1044698;28;2686;-50
2022/12/20 02:38:53;;;;;;;;;;;;;;;;;;1045354;28;2334;-47
2022/12/20 02:39:26;;;;;;;;;;;;;;;;;;1045427;28;2166;-48
2022/12/20 02:39:56;;;;;;;;;;;;;;;;;;1043580;28;2413;-48
2022/12/20 02:40:29;;;;;;;;;;;;;;;;;;1044071;28;2616;-47
2022/12/20 02:41:03;;;;;;;;;;;;;;;;;;1047856;28;1779;-48
2022/12/20 02:41:49;;;;;;;;;;;;;;;;;;1047650;28;2542;-47
2022/12/20 02:42:26;;;;;;;;;;;;;;;;;;1051744;28;2436;-48
2022/12/20 02:42:59;;;;;;;;;;;;;;;;;;1052773;28;2091;-49
2022/12/20 02:45:15;;;;;;;;;;;;;;;;;;1051308;28;2610;-48
2022/12/20 02:45:45;;;;;;;;;;;;;;;;;;1053247;28;2261;-48
2022/12/20 02:46:17;;;;;;;;;;;;;;;;;;1052311;28;2459;-47
2022/12/20 02:46:47;;;;;;;;;;;;;;;;;;1052642;28;2769;-48
2022/12/20 02:47:20;;;;;;;;;;;;;;;;;;1053645;28;2123;-48
2022/12/20 02:48:07;;;;;;;;;;;;;;;;;;1052070;28;3569;-50
2022/12/20 02:48:39;;;;;;;;;;;;;;;;;;1051781;28;2399;-51
2022/12/20 02:49:12;;;;;;;;;;;;;;;;;;1051959;28;2425;-49
2022/12/20 02:49:44;;;;;;;;;;;;;;;;;;1053312;28;3084;-48
2022/12/20 02:50:17;;;;;;;;;;;;;;;;;;1052810;28;2354;-47
2022/12/20 02:50:49;;;;;;;;;;;;;;;;;;1052820;28;2528;-49
2022/12/20 02:51:20;;;;;;;;;;;;;;;;;;1052139;28;2525;-47
2022/12/20 02:51:53;;;;;;;;;;;;;;;;;;1052853;28;2669;-47
2022/12/20 02:52:25;;;;;;;;;;;;;;;;;;1052379;28;2768;-50
2022/12/20 02:52:56;;;;;;;;;;;;;;;;;;1051963;28;2462;-49
2022/12/20 02:53:28;;;;;;;;;;;;;;;;;;1051956;28;2207;-47
2022/12/20 02:53:59;;;;;;;;;;;;;;;;;;1052748;28;2571;-47
2022/12/20 02:54:29;;;;;;;;;;;;;;;;;;1053581;28;2389;-49
2022/12/20 02:55:00;;;;;;;;;;;;;;;;;;1052844;28;3042;-48
2022/12/20 02:55:49;;;;;;;;;;;;;;;;;;1053115;28;2158;-49
2022/12/20 02:56:25;;;;;;;;;;;;;;;;;;1051804;28;2669;-48
2022/12/20 02:56:59;;;;;;;;;;;;;;;;;;1052191;28;2909;-47
2022/12/20 02:57:33;;;;;;;;;;;;;;;;;;1052532;28;2248;-48
2022/12/20 02:58:05;;;;;;;;;;;;;;;;;;1053792;28;2005;-48
2022/12/20 02:58:46;;;;;;;;;;;;;;;;;;1051779;28;2364;-49
2022/12/20 02:59:18;;;;;;;;;;;;;;;;;;1053756;28;2673;-48
2022/12/20 03:00:04;;;;;;;;;;;;;;;;;;1051666;28;2974;-48
2022/12/20 03:00:37;;;;;;;;;;;;;;;;;;1051687;28;2557;-46
2022/12/20 03:01:10;;;;;;;;;;;;;;;;;;1051537;28;2943;-49
2022/12/20 03:01:46;;;;;;;;;;;;;;;;;;1053933;28;2577;-48
2022/12/20 03:02:17;;;;;;;;;;;;;;;;;;1053313;28;2951;-47
2022/12/20 03:03:37;;;;;;;;;;;;;;;;;;1053706;28;2757;-47
2022/12/20 03:04:07;;;;;;;;;;;;;;;;;;1051848;28;3202;-49
2022/12/20 03:04:39;;;;;;;;;;;;;;;;;;1052875;28;2464;-47
2022/12/20 03:05:10;;;;;;;;;;;;;;;;;;1053419;28;2167;-50
2022/12/20 03:05:45;;;;;;;;;;;;;;;;;;1053776;28;2316;-47
2022/12/20 03:06:15;;;;;;;;;;;;;;;;;;1051936;28;2147;-47
2022/12/20 03:07:02;;;;;;;;;;;;;;;;;;1049540;28;2143;-50
2022/12/20 03:07:33;;;;;;;;;;;;;;;;;;1046747;28;2454;-47
2022/12/20 03:08:03;;;;;;;;;;;;;;;;;;1048138;28;2717;-52
2022/12/20 03:08:33;;;;;;;;;;;;;;;;;;1050676;28;2558;-47
2022/12/20 03:09:03;;;;;;;;;;;;;;;;;;1054664;28;2094;-47
2022/12/20 03:09:35;;;;;;;;;;;;;;;;;;1049736;28;2457;-48
2022/12/20 03:10:05;;;;;;;;;;;;;;;;;;1054245;28;2057;-48
2022/12/20 03:10:36;;;;;;;;;;;;;;;;;;1050962;28;2961;-50
2022/12/20 03:11:06;;;;;;;;;;;;;;;;;;1047501;28;2093;-48
2022/12/20 03:11:36;;;;;;;;;;;;;;;;;;1046844;28;2024;-47
2022/12/20 03:12:07;;;;;;;;;;;;;;;;;;1048103;28;2935;-47
2022/12/20 03:12:38;;;;;;;;;;;;;;;;;;1049483;28;2104;-47
2022/12/20 03:13:08;;;;;;;;;;;;;;;;;;1052177;28;2304;-48
2022/12/20 03:13:39;;;;;;;;;;;;;;;;;;1051415;28;1464;-48
2022/12/20 03:14:09;;;;;;;;;;;;;;;;;;1051830;28;2400;-47
2022/12/20 03:14:39;;;;;;;;;;;;;;;;;;1047982;28;3004;-47
2022/12/20 03:15:09;;;;;;;;;;;;;;;;;;1045609;28;2298;-50
2022/12/20 03:15:40;;;;;;;;;;;;;;;;;;1045134;28;2342;-49
2022/12/20 03:16:10;;;;;;;;;;;;;;;;;;1047421;28;2575;-47
2022/12/20 03:16:41;;;;;;;;;;;;;;;;;;1050763;28;1647;-47
2022/12/20 03:17:11;;;;;;;;;;;;;;;;;;1048595;28;2365;-48
2022/12/20 03:17:41;;;;;;;;;;;;;;;;;;1047012;28;1604;-47
2022/12/20 03:18:12;;;;;;;;;;;;;;;;;;1047668;28;2982;-46
2022/12/20 03:18:44;;;;;;;;;;;;;;;;;;1047595;28;1149;-50
2022/12/20 03:19:14;;;;;;;;;;;;;;;;;;1054172;28;2292;-48
2022/12/20 03:19:44;;;;;;;;;;;;;;;;;;1053308;28;2340;-49
2022/12/20 03:20:14;;;;;;;;;;;;;;;;;;1054382;28;2476;-47
2022/12/20 03:20:45;;;;;;;;;;;;;;;;;;1055095;28;1913;-48
2022/12/20 03:21:15;;;;;;;;;;;;;;;;;;1054901;28;2576;-49
2022/12/20 03:21:45;;;;;;;;;;;;;;;;;;1055834;28;2109;-49
2022/12/20 03:22:15;;;;;;;;;;;;;;;;;;1053835;28;2469;-50
2022/12/20 03:22:46;;;;;;;;;;;;;;;;;;1053738;28;2885;-48
2022/12/20 03:23:16;;;;;;;;;;;;;;;;;;1052226;28;3087;-48
2022/12/20 03:23:46;;;;;;;;;;;;;;;;;;1054892;28;2486;-48
2022/12/20 03:24:17;;;;;;;;;;;;;;;;;;1053748;28;3069;-48
2022/12/20 03:24:47;;;;;;;;;;;;;;;;;;1052153;28;2525;-49
2022/12/20 03:25:18;;;;;;;;;;;;;;;;;;1053921;28;3454;-47
2022/12/20 03:25:48;;;;;;;;;;;;;;;;;;1051806;28;2920;-49
2022/12/20 03:26:18;;;;;;;;;;;;;;;;;;1053072;28;2938;-46
2022/12/20 03:26:48;;;;;;;;;;;;;;;;;;1053730;28;3048;-51
2022/12/20 03:27:19;;;;;;;;;;;;;;;;;;1053699;28;2737;-47
2022/12/20 03:27:49;;;;;;;;;;;;;;;;;;1054287;28;2680;-51
2022/12/20 03:28:19;;;;;;;;;;;;;;;;;;1052717;28;2694;-48
2022/12/20 03:28:50;;;;;;;;;;;;;;;;;;1053010;28;2733;-47
2022/12/20 03:29:20;;;;;;;;;;;;;;;;;;1054849;28;2428;-47
2022/12/20 03:29:50;;;;;;;;;;;;;;;;;;1052423;28;2239;-48
2022/12/20 03:30:20;;;;;;;;;;;;;;;;;;1048760;28;2850;-46
2022/12/20 03:30:50;;;;;;;;;;;;;;;;;;1049423;28;2387;-48
2022/12/20 03:31:21;;;;;;;;;;;;;;;;;;1048749;28;2392;-51
2022/12/20 03:31:51;;;;;;;;;;;;;;;;;;1049839;28;2161;-47
2022/12/20 03:32:21;;;;;;;;;;;;;;;;;;1054012;28;2812;-48
2022/12/20 03:32:52;;;;;;;;;;;;;;;;;;1054807;28;2560;-49
2022/12/20 03:33:22;;;;;;;;;;;;;;;;;;1052347;28;3069;-47
2022/12/20 03:33:52;;;;;;;;;;;;;;;;;;1048091;28;2855;-50
2022/12/20 03:34:23;;;;;;;;;;;;;;;;;;1048541;28;2406;-49
2022/12/20 03:34:53;;;;;;;;;;;;;;;;;;1048575;28;2383;-48
2022/12/20 03:35:23;;;;;;;;;;;;;;;;;;1047707;28;2467;-47
2022/12/20 03:35:54;;;;;;;;;;;;;;;;;;1051439;28;2127;-47
2022/12/20 03:36:24;;;;;;;;;;;;;;;;;;1051788;28;2171;-49
2022/12/20 03:36:54;;;;;;;;;;;;;;;;;;1053239;28;2339;-48
2022/12/20 03:37:25;;;;;;;;;;;;;;;;;;1054036;28;2517;-49
2022/12/20 03:38:02;;;;;;;;;;;;;;;;;;1047047;28;1653;-49
2022/12/20 03:38:32;;;;;;;;;;;;;;;;;;1047179;28;1818;-47
2022/12/20 03:39:03;;;;;;;;;;;;;;;;;;1043934;28;2331;-47
2022/12/20 03:39:33;;;;;;;;;;;;;;;;;;1043477;28;2211;-48
2022/12/20 03:40:04;;;;;;;;;;;;;;;;;;1047305;28;1760;-50
2022/12/20 03:40:34;;;;;;;;;;;;;;;;;;1048637;28;1630;-49
2022/12/20 03:41:04;;;;;;;;;;;;;;;;;;1053138;28;2585;-48
2022/12/20 03:41:48;;;;;;;;;;;;;;;;;;1050513;28;2172;-46
2022/12/20 03:42:26;;;;;;;;;;;;;;;;;;1051497;28;1717;-49
2022/12/20 03:42:56;;;;;;;;;;;;;;;;;;1054619;28;2368;-49
2022/12/20 03:43:26;;;;;;;;;;;;;;;;;;1053727;28;2059;-47
2022/12/20 03:43:56;;;;;;;;;;;;;;;;;;1052475;28;2500;-49
2022/12/20 03:44:27;;;;;;;;;;;;;;;;;;1053204;28;2472;-48
2022/12/20 03:44:57;;;;;;;;;;;;;;;;;;1052352;28;2699;-48
2022/12/20 03:45:27;;;;;;;;;;;;;;;;;;1051410;28;2062;-48
2022/12/20 03:45:57;;;;;;;;;;;;;;;;;;1052520;28;2197;-46
2022/12/20 03:46:28;;;;;;;;;;;;;;;;;;1052826;28;2544;-46